createdAt,value
2022-08-11T00:01:05.243Z,21.62
2022-08-11T00:03:08.087Z,21.64
2022-08-11T00:05:09.493Z,21.54
2022-08-11T00:07:10.851Z,21.44
2022-08-11T00:09:12.292Z,21.49
2022-08-11T00:11:13.677Z,21.50
2022-08-11T00:13:15.370Z,21.50
2022-08-11T00:15:18.309Z,21.49
2022-08-11T00:17:19.620Z,21.50
2022-08-11T00:20:13.978Z,21.47
2022-08-11T00:22:04.398Z,21.47
2022-08-11T00:24:03.720Z,21.49
2022-08-11T00:26:05.051Z,21.48
2022-08-11T00:28:06.366Z,21.46
2022-08-11T00:30:07.752Z,21.45
2022-08-11T00:32:09.367Z,21.41
2022-08-11T00:34:10.799Z,21.41
2022-08-11T00:36:13.037Z,21.29
2022-08-11T00:38:14.366Z,21.27
2022-08-11T00:40:15.735Z,21.20
2022-08-11T00:42:17.213Z,21.10
2022-08-11T00:44:18.527Z,21.15
2022-08-11T00:46:19.834Z,21.26
2022-08-11T00:48:21.187Z,21.33
2022-08-11T00:50:22.503Z,21.33
2022-08-11T00:52:23.852Z,21.28
2022-08-11T00:54:25.276Z,21.28
2022-08-11T00:56:26.627Z,21.33
2022-08-11T00:58:27.927Z,21.39
2022-08-11T01:00:29.560Z,21.40
2022-08-11T01:02:30.911Z,21.36
2022-08-11T01:04:32.271Z,21.28
2022-08-11T01:06:33.993Z,21.25
2022-08-11T01:08:36.211Z,21.16
2022-08-11T01:10:37.511Z,21.13
2022-08-11T01:12:39.158Z,21.17
2022-08-11T01:14:40.720Z,21.11
2022-08-11T01:16:42.072Z,21.08
2022-08-11T01:18:43.394Z,21.06
2022-08-11T01:20:48.926Z,21.08
2022-08-11T01:22:51.734Z,21.04
2022-08-11T01:24:53.043Z,21.09
2022-08-11T01:26:54.392Z,21.12
2022-08-11T01:28:55.699Z,21.16
2022-08-11T01:30:57.003Z,21.22
2022-08-11T01:32:58.357Z,21.22
2022-08-11T01:34:59.662Z,21.17
2022-08-11T01:37:01.005Z,21.04
2022-08-11T01:39:02.371Z,20.98
2022-08-11T01:41:03.718Z,21.01
2022-08-11T01:43:23.482Z,21.12
2022-08-11T01:45:24.830Z,21.13
2022-08-11T01:47:52.868Z,21.05
2022-08-11T01:50:07.663Z,21.06
2022-08-11T01:52:11.399Z,21.02
2022-08-11T01:54:12.694Z,21.03
2022-08-11T01:56:13.990Z,20.95
2022-08-11T01:58:15.332Z,21.09
2022-08-11T02:00:16.651Z,21.15
2022-08-11T02:02:21.473Z,21.11
2022-08-11T02:04:23.100Z,21.09
2022-08-11T02:06:42.987Z,21.06
2022-08-11T02:08:44.351Z,21.02
2022-08-11T02:11:12.711Z,21.09
2022-08-11T02:13:15.535Z,21.03
2022-08-11T02:15:16.847Z,20.98
2022-08-11T02:17:18.155Z,20.96
2022-08-11T02:19:38.157Z,21.03
2022-08-11T02:21:58.162Z,20.93
2022-08-11T02:24:06.670Z,20.90
2022-08-11T02:26:09.153Z,20.87
2022-08-11T02:28:11.134Z,20.93
2022-08-11T02:30:12.451Z,20.93
2022-08-11T02:32:32.607Z,20.92
2022-08-11T02:34:33.955Z,20.95
2022-08-11T02:36:35.258Z,20.94
2022-08-11T02:38:36.583Z,20.92
2022-08-11T02:40:37.932Z,20.93
2022-08-11T02:42:39.275Z,20.84
2022-08-11T02:44:40.591Z,20.78
2022-08-11T02:46:42.231Z,20.71
2022-08-11T02:49:02.242Z,20.69
2022-08-11T02:51:03.603Z,20.65
2022-08-11T02:53:04.947Z,20.57
2022-08-11T02:55:06.841Z,20.48
2022-08-11T02:57:11.425Z,20.45
2022-08-11T02:59:31.738Z,20.88
2022-08-11T03:01:33.244Z,20.98
2022-08-11T03:03:36.297Z,20.72
2022-08-11T03:05:37.617Z,20.64
2022-08-11T03:07:38.966Z,20.51
2022-08-11T03:09:40.355Z,20.32
2022-08-11T03:12:00.364Z,20.29
2022-08-11T03:14:20.299Z,20.24
2022-08-11T03:16:40.467Z,20.18
2022-08-11T03:18:41.782Z,20.24
2022-08-11T03:20:43.651Z,20.23
2022-08-11T03:22:45.083Z,20.21
2022-08-11T03:24:46.550Z,20.13
2022-08-11T03:26:47.975Z,20.19
2022-08-11T03:28:49.403Z,20.16
2022-08-11T03:30:50.764Z,20.20
2022-08-11T03:33:12.072Z,20.09
2022-08-11T03:35:21.325Z,20.11
2022-08-11T03:37:41.726Z,20.10
2022-08-11T03:39:56.141Z,20.01
2022-08-11T03:42:03.865Z,19.97
2022-08-11T03:44:06.763Z,20.16
2022-08-11T03:46:08.135Z,20.15
2022-08-11T03:48:09.710Z,20.16
2022-08-11T03:50:11.011Z,20.16
2022-08-11T03:52:12.371Z,20.02
2022-08-11T03:54:16.076Z,20.04
2022-08-11T03:56:19.138Z,20.08
2022-08-11T03:58:20.498Z,20.07
2022-08-11T04:00:21.881Z,20.03
2022-08-11T04:02:23.183Z,20.01
2022-08-11T04:04:24.542Z,20.05
2022-08-11T04:06:25.896Z,19.95
2022-08-11T04:08:27.212Z,20.01
2022-08-11T04:10:35.816Z,20.03
2022-08-11T04:12:37.228Z,19.98
2022-08-11T04:14:57.135Z,19.93
2022-08-11T04:16:58.775Z,19.74
2022-08-11T04:19:00.189Z,19.84
2022-08-11T04:21:01.484Z,19.87
2022-08-11T04:23:03.606Z,19.98
2022-08-11T04:25:04.983Z,20.02
2022-08-11T04:27:07.338Z,20.01
2022-08-11T04:29:11.970Z,20.02
2022-08-11T04:31:13.324Z,20.03
2022-08-11T04:33:37.710Z,19.92
2022-08-11T04:35:39.102Z,19.92
2022-08-11T04:37:40.414Z,19.85
2022-08-11T04:39:41.789Z,19.90
2022-08-11T04:42:03.087Z,19.90
2022-08-11T04:44:06.224Z,19.84
2022-08-11T04:46:08.043Z,19.77
2022-08-11T04:48:28.012Z,19.89
2022-08-11T04:51:09.164Z,19.89
2022-08-11T04:53:28.507Z,20.01
2022-08-11T04:55:48.486Z,20.00
2022-08-11T04:58:10.459Z,20.02
2022-08-11T05:00:30.302Z,19.98
2022-08-11T05:02:31.639Z,19.96
2022-08-11T05:04:51.463Z,19.93
2022-08-11T05:06:52.803Z,19.98
2022-08-11T05:08:54.160Z,20.02
2022-08-11T05:10:55.463Z,20.11
2022-08-11T05:12:56.765Z,20.13
2022-08-11T05:15:16.896Z,20.15
2022-08-11T05:17:36.679Z,20.18
2022-08-11T05:19:56.667Z,20.17
2022-08-11T05:22:16.449Z,20.17
2022-08-11T05:24:36.502Z,20.20
2022-08-11T05:26:56.413Z,20.21
2022-08-11T05:29:19.687Z,20.20
2022-08-11T05:31:40.823Z,20.21
2022-08-11T05:34:00.740Z,20.24
2022-08-11T05:36:03.292Z,20.23
2022-08-11T05:38:23.430Z,20.24
2022-08-11T05:40:43.686Z,20.25
2022-08-11T05:43:11.224Z,20.26
2022-08-11T05:45:58.289Z,20.28
2022-08-11T05:48:11.295Z,20.31
2022-08-11T05:50:33.178Z,20.32
2022-08-11T05:52:55.440Z,20.33
2022-08-11T05:55:16.892Z,20.32
2022-08-11T05:57:42.343Z,20.35
2022-08-11T05:59:39.528Z,20.38
2022-08-11T06:01:40.922Z,20.36
2022-08-11T06:04:01.010Z,20.38
2022-08-11T06:06:02.353Z,20.40
2022-08-11T06:08:03.705Z,20.42
2022-08-11T06:10:05.015Z,20.41
2022-08-11T06:12:06.642Z,20.42
2022-08-11T06:14:08.001Z,20.45
2022-08-11T06:16:09.320Z,20.47
2022-08-11T06:18:11.207Z,20.49
2022-08-11T06:20:13.299Z,20.52
2022-08-11T06:22:14.651Z,20.55
2022-08-11T06:24:15.962Z,20.59
2022-08-11T06:26:17.285Z,20.62
2022-08-11T06:28:21.350Z,20.69
2022-08-11T06:30:23.498Z,20.73
2022-08-11T06:32:24.843Z,20.74
2022-08-11T06:34:27.462Z,20.78
2022-08-11T06:36:29.232Z,20.80
2022-08-11T06:38:30.579Z,20.84
2022-08-11T06:40:31.883Z,20.86
2022-08-11T06:42:33.230Z,20.88
2022-08-11T06:44:34.579Z,20.92
2022-08-11T06:46:39.340Z,20.94
2022-08-11T06:48:40.691Z,20.99
2022-08-11T06:51:00.815Z,21.01
2022-08-11T06:53:02.147Z,21.02
2022-08-11T06:55:06.620Z,21.03
2022-08-11T06:57:29.974Z,21.06
2022-08-11T06:59:50.738Z,21.09
2022-08-11T07:01:52.130Z,21.10
2022-08-11T07:03:54.542Z,21.11
2022-08-11T07:05:55.933Z,21.12
2022-08-11T07:08:34.930Z,21.12
2022-08-11T07:10:55.568Z,21.14
2022-08-11T07:13:44.842Z,21.15
2022-08-11T07:16:12.910Z,21.15
2022-08-11T07:18:23.119Z,21.16
2022-08-11T07:20:43.211Z,21.17
2022-08-11T07:23:10.454Z,21.18
2022-08-11T07:25:30.658Z,21.19
2022-08-11T07:27:50.428Z,21.21
2022-08-11T07:29:52.071Z,21.21
2022-08-11T07:31:54.010Z,21.21
2022-08-11T07:34:05.879Z,21.21
2022-08-11T07:36:13.008Z,21.22
2022-08-11T07:38:15.582Z,21.23
2022-08-11T07:40:19.499Z,21.24
2022-08-11T07:42:21.458Z,21.23
2022-08-11T07:44:29.402Z,21.24
2022-08-11T07:46:52.378Z,21.29
2022-08-11T07:49:12.099Z,21.34
2022-08-11T07:51:31.988Z,21.42
2022-08-11T07:53:33.317Z,21.48
2022-08-11T07:55:48.987Z,21.55
2022-08-11T07:58:19.596Z,21.64
2022-08-11T08:00:40.393Z,21.67
2022-08-11T08:03:00.435Z,21.70
2022-08-11T08:05:20.463Z,21.74
2022-08-11T08:07:40.397Z,21.77
2022-08-11T08:10:00.590Z,21.83
2022-08-11T08:12:20.789Z,21.85
2022-08-11T08:14:40.674Z,21.87
2022-08-11T08:17:00.675Z,21.91
2022-08-11T08:19:01.985Z,21.93
2022-08-11T08:21:12.230Z,21.96
2022-08-11T08:23:13.715Z,21.97
2022-08-11T08:25:15.024Z,21.96
2022-08-11T08:27:16.403Z,21.98
2022-08-11T08:29:36.180Z,21.99
2022-08-11T08:31:37.478Z,22.03
2022-08-11T08:33:38.878Z,22.05
2022-08-11T08:35:54.241Z,22.07
2022-08-11T08:37:59.662Z,22.05
2022-08-11T08:40:00.969Z,22.05
2022-08-11T08:42:02.275Z,22.08
2022-08-11T08:44:27.716Z,22.11
2022-08-11T08:46:25.034Z,22.12
2022-08-11T08:48:26.355Z,22.14
2022-08-11T08:50:48.589Z,22.16
2022-08-11T08:52:53.310Z,22.15
2022-08-11T08:54:54.610Z,22.14
2022-08-11T08:56:55.942Z,22.14
2022-08-11T08:58:57.679Z,22.13
2022-08-11T09:00:59.085Z,22.16
2022-08-11T09:03:17.227Z,22.16
2022-08-11T09:05:25.848Z,22.19
2022-08-11T09:07:30.265Z,22.20
2022-08-11T09:09:34.092Z,22.21
2022-08-11T09:11:50.523Z,22.22
2022-08-11T09:14:06.593Z,22.22
2022-08-11T09:16:09.650Z,22.23
2022-08-11T09:18:11.236Z,22.21
2022-08-11T09:20:12.639Z,22.20
2022-08-11T09:22:32.970Z,22.22
2022-08-11T09:24:53.254Z,22.22
2022-08-11T09:27:01.097Z,22.22
2022-08-11T09:29:02.882Z,22.20
2022-08-11T09:31:04.189Z,22.21
2022-08-11T09:33:05.625Z,22.19
2022-08-11T09:35:06.947Z,22.19
2022-08-11T09:37:53.643Z,22.20
2022-08-11T09:40:06.944Z,22.20
2022-08-11T09:42:11.388Z,22.23
2022-08-11T09:44:36.798Z,22.24
2022-08-11T09:46:39.728Z,22.23
2022-08-11T09:48:41.071Z,22.24
2022-08-11T09:50:42.426Z,22.25
2022-08-11T09:53:03.624Z,22.22
2022-08-11T09:55:11.108Z,22.20
2022-08-11T09:57:31.676Z,22.19
2022-08-11T09:59:33.228Z,22.22
2022-08-11T10:01:34.663Z,22.22
2022-08-11T10:03:40.342Z,22.20
2022-08-11T10:06:04.540Z,22.20
2022-08-11T10:08:08.677Z,22.20
2022-08-11T10:10:10.063Z,22.20
2022-08-11T10:12:12.078Z,22.22
2022-08-11T10:14:34.980Z,22.20
2022-08-11T10:16:36.603Z,22.21
2022-08-11T10:18:49.583Z,22.23
2022-08-11T10:20:50.912Z,22.25
2022-08-11T10:23:10.726Z,22.24
2022-08-11T10:25:41.341Z,22.23
2022-08-11T10:28:17.062Z,22.24
2022-08-11T10:30:22.591Z,22.20
2022-08-11T10:32:57.961Z,22.13
2022-08-11T10:35:00.891Z,22.16
2022-08-11T10:37:03.109Z,22.17
2022-08-11T10:39:04.527Z,22.16
2022-08-11T10:41:24.762Z,22.18
2022-08-11T10:44:01.220Z,22.24
2022-08-11T10:46:06.226Z,22.26
2022-08-11T10:48:10.001Z,22.29
2022-08-11T10:50:32.489Z,22.28
2022-08-11T10:52:52.522Z,22.29
2022-08-11T10:55:12.408Z,22.27
2022-08-11T10:57:32.226Z,22.24
2022-08-11T10:59:33.526Z,22.23
2022-08-11T11:01:34.977Z,22.26
2022-08-11T11:03:38.039Z,22.27
2022-08-11T11:05:39.330Z,22.31
2022-08-11T11:08:02.983Z,22.33
2022-08-11T11:10:04.312Z,22.32
2022-08-11T11:12:24.391Z,22.34
2022-08-11T11:14:46.805Z,22.28
2022-08-11T11:17:10.210Z,22.27
2022-08-11T11:19:11.724Z,22.26
2022-08-11T11:21:13.086Z,22.24
2022-08-11T11:23:14.430Z,22.26
2022-08-11T11:25:16.788Z,22.31
2022-08-11T11:27:18.131Z,22.37
2022-08-11T11:29:20.483Z,22.37
2022-08-11T11:31:22.607Z,22.38
2022-08-11T11:33:23.959Z,22.41
2022-08-11T11:35:26.843Z,22.39
2022-08-11T11:37:28.244Z,22.39
2022-08-11T11:39:29.710Z,22.36
2022-08-11T11:41:31.100Z,22.41
2022-08-11T11:43:32.443Z,22.46
2022-08-11T11:45:33.792Z,22.43
2022-08-11T11:47:35.875Z,22.38
2022-08-11T11:49:40.363Z,22.37
2022-08-11T11:51:41.699Z,22.41
2022-08-11T11:53:45.430Z,22.46
2022-08-11T11:55:46.749Z,22.47
2022-08-11T11:58:06.588Z,22.44
2022-08-11T12:00:33.707Z,22.40
2022-08-11T12:02:35.245Z,22.41
2022-08-11T12:04:37.084Z,22.39
2022-08-11T12:06:38.806Z,22.40
2022-08-11T12:08:40.266Z,22.40
2022-08-11T12:10:41.603Z,22.42
2022-08-11T12:13:01.686Z,22.44
2022-08-11T12:15:02.996Z,22.48
2022-08-11T12:17:04.339Z,22.51
2022-08-11T12:19:05.668Z,22.50
2022-08-11T12:21:06.979Z,22.49
2022-08-11T12:23:26.830Z,22.54
2022-08-11T12:25:50.006Z,22.56
2022-08-11T12:27:57.018Z,22.56
2022-08-11T12:29:58.402Z,23.41
2022-08-11T12:32:00.549Z,23.62
2022-08-11T12:34:02.280Z,23.90
2022-08-11T12:36:03.583Z,23.79
2022-08-11T12:38:10.675Z,23.86
2022-08-11T12:40:49.631Z,23.83
2022-08-11T12:43:21.246Z,23.83
2022-08-11T12:45:29.603Z,23.35
2022-08-11T12:48:57.201Z,23.11
2022-08-11T12:50:30.752Z,23.02
2022-08-11T12:52:33.997Z,22.97
2022-08-11T12:54:35.315Z,22.95
2022-08-11T12:56:55.584Z,22.99
2022-08-11T12:59:15.798Z,23.01
2022-08-11T13:01:36.009Z,23.00
2022-08-11T13:03:56.736Z,23.00
2022-08-11T13:05:58.330Z,23.00
2022-08-11T13:07:59.663Z,22.91
2022-08-11T13:10:01.717Z,23.75
2022-08-11T13:12:21.580Z,24.28
2022-08-11T13:14:22.900Z,24.34
2022-08-11T13:16:24.235Z,24.37
2022-08-11T13:18:27.701Z,24.48
2022-08-11T13:20:29.058Z,24.31
2022-08-11T13:22:30.402Z,24.21
2022-08-11T13:24:36.811Z,24.25
2022-08-11T13:26:47.293Z,24.25
2022-08-11T13:28:51.128Z,24.26
2022-08-11T13:31:11.077Z,24.28
2022-08-11T13:33:12.444Z,24.23
2022-08-11T13:35:15.148Z,24.24
2022-08-11T13:37:16.516Z,24.25
2022-08-11T13:39:18.058Z,24.30
2022-08-11T13:41:39.448Z,24.26
2022-08-11T13:43:41.419Z,24.33
2022-08-11T13:45:42.735Z,24.34
2022-08-11T13:47:44.039Z,24.38
2022-08-11T13:49:45.342Z,24.40
2022-08-11T13:51:46.719Z,24.45
2022-08-11T13:53:48.059Z,24.49
2022-08-11T13:55:51.351Z,24.50
2022-08-11T13:58:08.271Z,24.55
2022-08-11T14:00:26.959Z,24.43
2022-08-11T14:02:30.827Z,23.97
2022-08-11T14:04:33.611Z,23.87
2022-08-11T14:06:35.591Z,23.82
2022-08-11T14:08:38.411Z,23.81
2022-08-11T14:10:40.347Z,23.80
2022-08-11T14:13:00.459Z,23.81
2022-08-11T14:15:07.556Z,23.83
2022-08-11T14:17:09.971Z,23.84
2022-08-11T14:19:11.785Z,23.87
2022-08-11T14:21:31.975Z,23.88
2022-08-11T14:23:33.369Z,23.84
2022-08-11T14:26:00.767Z,23.82
2022-08-11T14:28:31.934Z,23.78
2022-08-11T14:30:37.083Z,23.79
2022-08-11T14:32:53.077Z,23.79
2022-08-11T14:34:58.778Z,23.80
2022-08-11T14:37:00.094Z,23.83
2022-08-11T14:39:01.454Z,23.80
2022-08-11T14:41:21.717Z,23.79
2022-08-11T14:44:13.246Z,23.76
2022-08-11T14:46:21.615Z,23.77
2022-08-11T14:48:22.930Z,23.77
2022-08-11T14:50:24.360Z,23.76
2022-08-11T14:52:25.659Z,23.73
2022-08-11T14:54:45.920Z,23.72
2022-08-11T14:56:47.268Z,23.71
2022-08-11T14:58:48.673Z,23.74
2022-08-11T15:00:50.049Z,23.73
2022-08-11T15:03:10.706Z,23.72
2022-08-11T15:05:12.679Z,23.71
2022-08-11T15:07:16.970Z,23.69
2022-08-11T15:09:18.818Z,23.70
2022-08-11T15:11:38.931Z,23.70
2022-08-11T15:13:40.304Z,23.69
2022-08-11T15:16:05.615Z,23.68
2022-08-11T15:18:07.219Z,23.66
2022-08-11T15:20:27.075Z,23.67
2022-08-11T15:22:46.995Z,23.69
2022-08-11T15:24:48.320Z,23.71
2022-08-11T15:27:08.113Z,23.74
2022-08-11T15:29:28.051Z,23.76
2022-08-11T15:31:49.548Z,23.76
2022-08-11T15:34:09.498Z,23.76
2022-08-11T15:36:29.423Z,23.78
2022-08-11T15:38:33.427Z,23.80
2022-08-11T15:40:53.327Z,23.81
2022-08-11T15:43:13.217Z,23.99
2022-08-11T15:45:32.961Z,23.88
2022-08-11T15:47:34.423Z,23.79
2022-08-11T15:50:11.095Z,23.76
2022-08-11T15:52:01.864Z,24.48
2022-08-11T15:54:08.602Z,24.53
2022-08-11T15:56:11.098Z,24.87
2022-08-11T15:58:31.039Z,24.80
2022-08-11T16:00:59.018Z,24.90
2022-08-11T16:03:24.440Z,24.95
2022-08-11T16:05:51.354Z,25.01
2022-08-11T16:07:54.663Z,25.04
2022-08-11T16:10:00.261Z,25.01
2022-08-11T16:12:01.927Z,24.89
2022-08-11T16:14:22.046Z,24.83
2022-08-11T16:16:23.382Z,24.92
2022-08-11T16:18:24.694Z,24.45
2022-08-11T16:20:26.059Z,23.98
2022-08-11T16:22:38.414Z,23.86
2022-08-11T16:27:03.406Z,23.79
2022-08-11T16:27:10.077Z,23.74
2022-08-11T16:29:14.198Z,23.70
2022-08-11T16:31:15.503Z,23.66
2022-08-11T16:33:48.468Z,23.62
2022-08-11T16:35:56.936Z,23.59
2022-08-11T16:38:16.920Z,23.56
2022-08-11T16:40:18.274Z,23.56
2022-08-11T16:43:05.289Z,23.56
2022-08-11T16:45:18.157Z,23.52
2022-08-11T16:48:03.572Z,23.46
2022-08-11T16:49:40.772Z,23.46
2022-08-11T16:51:42.081Z,23.46
2022-08-11T16:54:04.146Z,23.46
2022-08-11T16:56:05.599Z,23.43
2022-08-11T16:58:25.376Z,23.41
2022-08-11T17:00:26.784Z,23.39
2022-08-11T17:02:46.986Z,23.40
2022-08-11T17:05:06.921Z,23.39
2022-08-11T17:07:50.104Z,23.39
2022-08-11T17:10:06.579Z,23.36
2022-08-11T17:12:46.759Z,23.34
2022-08-11T17:14:48.081Z,22.48
2022-08-11T17:16:49.383Z,23.31
2022-08-11T17:18:52.786Z,23.30
2022-08-11T17:20:55.651Z,23.28
2022-08-11T17:23:15.735Z,23.27
2022-08-11T17:25:17.085Z,23.27
2022-08-11T17:27:18.421Z,23.62
2022-08-11T17:29:19.798Z,24.17
2022-08-11T17:31:40.053Z,24.57
2022-08-11T17:33:59.849Z,24.59
2022-08-11T17:36:01.195Z,24.48
2022-08-11T17:38:03.945Z,24.47
2022-08-11T17:40:05.305Z,24.52
2022-08-11T17:42:25.148Z,24.60
2022-08-11T17:44:45.003Z,24.60
2022-08-11T17:47:06.392Z,24.57
2022-08-11T17:49:07.890Z,24.56
2022-08-11T17:51:09.238Z,24.53
2022-08-11T17:53:29.415Z,24.56
2022-08-11T17:55:51.819Z,24.61
2022-08-11T17:58:13.146Z,24.62
2022-08-11T18:00:14.538Z,24.63
2022-08-11T18:02:35.271Z,24.15
2022-08-11T18:04:36.630Z,23.78
2022-08-11T18:06:37.984Z,23.64
2022-08-11T18:08:58.102Z,23.57
2022-08-11T18:12:09.850Z,23.50
2022-08-11T18:13:58.128Z,23.46
2022-08-11T18:16:17.984Z,23.40
2022-08-11T18:18:37.811Z,23.35
2022-08-11T18:20:57.582Z,23.32
2022-08-11T18:23:17.463Z,23.29
2022-08-11T18:25:40.778Z,23.25
2022-08-11T18:28:03.210Z,23.23
2022-08-11T18:30:23.449Z,23.21
2022-08-11T18:32:50.010Z,23.16
2022-08-11T18:35:10.223Z,23.13
2022-08-11T18:37:30.331Z,23.11
2022-08-11T18:39:56.181Z,23.10
2022-08-11T18:42:26.655Z,23.08
2022-08-11T18:44:49.660Z,23.06
2022-08-11T18:47:10.378Z,23.04
2022-08-11T18:50:01.572Z,23.62
2022-08-11T18:52:11.227Z,23.93
2022-08-11T18:54:31.321Z,24.06
2022-08-11T18:56:51.238Z,24.07
2022-08-11T18:59:11.152Z,24.18
2022-08-11T19:01:31.099Z,24.17
2022-08-11T19:03:51.066Z,24.09
2022-08-11T19:06:39.047Z,24.04
2022-08-11T19:08:51.854Z,24.10
2022-08-11T19:11:12.002Z,24.21
2022-08-11T19:13:31.721Z,24.20
2022-08-11T19:15:51.487Z,24.29
2022-08-11T19:18:12.853Z,24.26
2022-08-11T19:20:32.600Z,24.00
2022-08-11T19:22:52.411Z,23.62
2022-08-11T19:25:12.526Z,23.90
2022-08-11T19:27:33.785Z,24.06
2022-08-11T19:30:04.662Z,24.08
2022-08-11T19:32:33.513Z,23.32
2022-08-11T19:34:53.278Z,23.27
2022-08-11T19:37:13.076Z,23.73
2022-08-11T19:39:33.166Z,23.89
2022-08-11T19:41:57.873Z,24.00
2022-08-11T19:44:17.924Z,23.98
2022-08-11T19:46:37.675Z,23.95
2022-08-11T19:48:57.537Z,23.92
2022-08-11T19:51:17.488Z,23.93
2022-08-11T19:53:37.769Z,24.00
2022-08-11T19:55:57.595Z,23.93
2022-08-11T19:58:17.514Z,24.00
2022-08-11T20:00:37.378Z,23.46
2022-08-11T20:02:57.357Z,23.10
2022-08-11T20:05:17.270Z,23.26
2022-08-11T20:07:37.206Z,23.04
2022-08-11T20:10:00.962Z,22.96
2022-08-11T20:12:26.269Z,22.91
2022-08-11T20:14:46.337Z,22.89
2022-08-11T20:17:06.159Z,22.86
2022-08-11T20:19:54.962Z,22.81
2022-08-11T20:22:08.933Z,22.76
2022-08-11T20:24:30.488Z,22.73
2022-08-11T20:26:50.356Z,22.71
2022-08-11T20:29:10.673Z,22.67
2022-08-11T20:31:30.951Z,22.63
2022-08-11T20:33:51.033Z,22.58
2022-08-11T20:36:11.032Z,22.56
2022-08-11T20:38:31.030Z,22.53
2022-08-11T20:40:50.868Z,22.48
2022-08-11T20:43:15.895Z,22.45
2022-08-11T20:45:55.323Z,22.43
2022-08-11T20:48:17.570Z,22.41
2022-08-11T20:50:37.452Z,22.38
2022-08-11T20:52:57.411Z,22.37
2022-08-11T20:55:19.225Z,22.34
2022-08-11T20:57:59.470Z,22.31
2022-08-11T21:00:38.565Z,22.26
2022-08-11T21:02:59.937Z,22.26
2022-08-11T21:05:21.654Z,22.23
2022-08-11T21:07:59.643Z,22.18
2022-08-11T21:10:23.821Z,22.18
2022-08-11T21:12:44.485Z,22.26
2022-08-11T21:15:10.767Z,22.30
2022-08-11T21:17:30.571Z,22.27
2022-08-11T21:20:00.389Z,22.23
2022-08-11T21:22:21.771Z,22.24
2022-08-11T21:24:48.151Z,22.20
2022-08-11T21:27:08.263Z,22.20
2022-08-11T21:29:36.259Z,22.17
2022-08-11T21:31:56.236Z,21.63
2022-08-11T21:34:16.224Z,21.23
2022-08-11T21:36:36.193Z,21.64
2022-08-11T21:38:56.454Z,21.81
2022-08-11T21:41:16.414Z,21.85
2022-08-11T21:43:36.520Z,21.85
2022-08-11T21:45:56.412Z,21.84
2022-08-11T21:48:16.210Z,21.83
2022-08-11T21:50:36.019Z,21.83
2022-08-11T21:52:56.004Z,21.85
2022-08-11T21:55:15.782Z,21.83
2022-08-11T21:57:35.920Z,21.83
2022-08-11T22:00:08.395Z,21.84
2022-08-11T22:02:28.590Z,21.82
2022-08-11T22:04:48.503Z,21.79
2022-08-11T22:07:08.506Z,21.76
2022-08-11T22:09:28.619Z,21.74
2022-08-11T22:11:48.696Z,21.72
2022-08-11T22:14:28.551Z,21.70
2022-08-11T22:16:48.605Z,21.68
2022-08-11T22:19:08.544Z,21.69
2022-08-11T22:21:57.011Z,21.67
2022-08-11T22:24:08.323Z,21.65
2022-08-11T22:26:29.767Z,21.68
2022-08-11T22:28:49.648Z,21.68
2022-08-11T22:31:09.454Z,21.66
2022-08-11T22:33:29.287Z,21.62
2022-08-11T22:35:49.528Z,21.62
2022-08-11T22:38:09.412Z,21.60
2022-08-11T22:40:29.535Z,21.61
2022-08-11T22:42:49.511Z,21.59
2022-08-11T22:45:09.375Z,21.57
2022-08-11T22:47:34.923Z,21.58
2022-08-11T22:50:00.749Z,21.53
2022-08-11T22:52:20.603Z,21.53
2022-08-11T22:54:40.426Z,21.53
2022-08-11T22:57:00.259Z,21.55
2022-08-11T22:59:20.102Z,21.59
2022-08-11T23:01:39.894Z,21.58
2022-08-11T23:04:16.261Z,21.53
2022-08-11T23:06:36.115Z,21.51
2022-08-11T23:08:56.027Z,21.48
2022-08-11T23:11:15.776Z,21.48
2022-08-11T23:13:35.720Z,21.48
2022-08-11T23:15:55.607Z,21.51
2022-08-11T23:18:15.554Z,21.57
2022-08-11T23:20:36.940Z,21.52
2022-08-11T23:23:03.830Z,21.51
2022-08-11T23:25:23.754Z,21.48
2022-08-11T23:27:43.586Z,21.46
2022-08-11T23:30:03.932Z,21.44
2022-08-11T23:32:24.486Z,21.38
2022-08-11T23:35:04.136Z,21.42
2022-08-11T23:37:24.472Z,21.38
2022-08-11T23:39:44.577Z,21.37
2022-08-11T23:42:04.712Z,21.30
2022-08-11T23:44:24.538Z,21.37
2022-08-11T23:46:44.269Z,21.32
2022-08-11T23:49:04.058Z,21.32
2022-08-11T23:51:23.900Z,21.29
2022-08-11T23:53:43.703Z,21.26
2022-08-11T23:56:03.500Z,21.25
2022-08-11T23:58:23.370Z,21.22
